sensor_id;sensor_type;location;lat;lon;timestamp;pressure;altitude;pressure_sealevel;temperature;humidity
40592;BME280;26301;42.832;23.918;2023-11-19T00:01:26;92972.13;;;1.09;88.02
40592;BME280;26301;42.832;23.918;2023-11-19T00:03:52;92990.41;;;1.20;88.14
40592;BME280;26301;42.832;23.918;2023-11-19T00:06:18;92991.75;;;1.37;86.40
40592;BME280;26301;42.832;23.918;2023-11-19T00:08:44;92971.66;;;1.21;87.13
40592;BME280;26301;42.832;23.918;2023-11-19T00:11:09;92969.41;;;1.11;88.19
40592;BME280;26301;42.832;23.918;2023-11-19T00:13:35;92974.44;;;1.04;88.96
40592;BME280;26301;42.832;23.918;2023-11-19T00:28:50;92988.56;;;2.06;85.42
40592;BME280;26301;42.832;23.918;2023-11-19T00:31:16;92980.00;;;1.86;85.16
40592;BME280;26301;42.832;23.918;2023-11-19T00:33:41;92979.34;;;1.77;84.36
40592;BME280;26301;42.832;23.918;2023-11-19T00:36:07;92992.97;;;1.63;84.98
40592;BME280;26301;42.832;23.918;2023-11-19T00:38:33;92958.00;;;1.50;86.07
40592;BME280;26301;42.832;23.918;2023-11-19T00:40:58;92991.97;;;1.35;85.18
40592;BME280;26301;42.832;23.918;2023-11-19T00:43:24;92986.38;;;1.25;85.85
40592;BME280;26301;42.832;23.918;2023-11-19T00:45:49;92993.16;;;1.40;86.58
40592;BME280;26301;42.832;23.918;2023-11-19T00:48:17;92972.31;;;1.29;87.13
40592;BME280;26301;42.832;23.918;2023-11-19T00:50:43;92986.13;;;1.42;84.76
40592;BME280;26301;42.832;23.918;2023-11-19T00:53:10;92983.44;;;1.50;84.95
40592;BME280;26301;42.832;23.918;2023-11-19T00:55:36;92994.84;;;1.54;85.26
40592;BME280;26301;42.832;23.918;2023-11-19T00:58:01;92998.53;;;1.51;84.46
40592;BME280;26301;42.832;23.918;2023-11-19T01:00:28;92990.53;;;1.54;85.03
40592;BME280;26301;42.832;23.918;2023-11-19T01:02:54;93013.34;;;1.63;84.73
40592;BME280;26301;42.832;23.918;2023-11-19T01:05:22;93006.31;;;1.71;83.64
40592;BME280;26301;42.832;23.918;2023-11-19T01:07:48;92979.94;;;1.51;82.72
40592;BME280;26301;42.832;23.918;2023-11-19T01:10:14;92998.44;;;1.59;83.47
40592;BME280;26301;42.832;23.918;2023-11-19T01:12:41;92971.94;;;1.54;85.14
40592;BME280;26301;42.832;23.918;2023-11-19T01:15:07;92980.59;;;1.59;85.05
40592;BME280;26301;42.832;23.918;2023-11-19T01:17:33;92984.16;;;1.65;83.30
40592;BME280;26301;42.832;23.918;2023-11-19T01:19:59;93007.56;;;1.75;82.12
40592;BME280;26301;42.832;23.918;2023-11-19T01:22:24;93008.56;;;1.81;82.12
40592;BME280;26301;42.832;23.918;2023-11-19T01:24:50;93017.53;;;1.77;81.08
40592;BME280;26301;42.832;23.918;2023-11-19T01:27:17;93009.16;;;1.83;80.40
40592;BME280;26301;42.832;23.918;2023-11-19T01:29:42;93005.59;;;1.77;81.37
40592;BME280;26301;42.832;23.918;2023-11-19T01:32:08;92996.28;;;1.63;80.67
40592;BME280;26301;42.832;23.918;2023-11-19T01:34:33;92989.19;;;1.58;79.86
40592;BME280;26301;42.832;23.918;2023-11-19T01:36:59;92989.31;;;1.50;82.23
40592;BME280;26301;42.832;23.918;2023-11-19T01:39:24;93005.19;;;1.74;82.30
40592;BME280;26301;42.832;23.918;2023-11-19T01:41:50;92995.88;;;1.59;80.79
40592;BME280;26301;42.832;23.918;2023-11-19T01:44:15;92995.22;;;1.51;80.28
40592;BME280;26301;42.832;23.918;2023-11-19T01:46:44;92997.25;;;1.62;81.61
40592;BME280;26301;42.832;23.918;2023-11-19T01:49:11;92985.09;;;1.57;80.75
40592;BME280;26301;42.832;23.918;2023-11-19T01:51:39;92996.38;;;1.76;80.60
40592;BME280;26301;42.832;23.918;2023-11-19T01:54:05;93016.72;;;1.70;81.14
40592;BME280;26301;42.832;23.918;2023-11-19T01:56:33;93000.66;;;1.69;79.76
40592;BME280;26301;42.832;23.918;2023-11-19T01:59:00;93014.63;;;1.80;79.04
40592;BME280;26301;42.832;23.918;2023-11-19T02:01:25;93026.81;;;1.85;80.29
40592;BME280;26301;42.832;23.918;2023-11-19T02:03:52;93005.53;;;1.71;80.80
40592;BME280;26301;42.832;23.918;2023-11-19T02:06:17;93025.69;;;1.66;81.16
40592;BME280;26301;42.832;23.918;2023-11-19T02:08:43;92999.78;;;1.62;81.84
40592;BME280;26301;42.832;23.918;2023-11-19T02:11:09;93015.59;;;1.79;81.24
40592;BME280;26301;42.832;23.918;2023-11-19T02:13:36;93026.44;;;1.88;82.35
40592;BME280;26301;42.832;23.918;2023-11-19T02:16:03;93023.97;;;2.01;81.55
40592;BME280;26301;42.832;23.918;2023-11-19T02:18:29;93009.16;;;1.83;80.07
40592;BME280;26301;42.832;23.918;2023-11-19T02:20:58;93004.31;;;1.88;78.72
40592;BME280;26301;42.832;23.918;2023-11-19T02:23:27;93007.13;;;2.00;77.79
40592;BME280;26301;42.832;23.918;2023-11-19T02:28:23;93009.25;;;2.24;77.46
40592;BME280;26301;42.832;23.918;2023-11-19T02:30:48;92985.63;;;2.09;78.51
40592;BME280;26301;42.832;23.918;2023-11-19T02:33:14;93010.63;;;2.27;77.22
40592;BME280;26301;42.832;23.918;2023-11-19T02:35:40;93003.88;;;2.13;77.02
40592;BME280;26301;42.832;23.918;2023-11-19T02:38:06;92982.28;;;2.02;76.40
40592;BME280;26301;42.832;23.918;2023-11-19T02:40:32;93018.38;;;2.12;77.43
40592;BME280;26301;42.832;23.918;2023-11-19T02:42:58;93024.84;;;2.08;77.61
40592;BME280;26301;42.832;23.918;2023-11-19T02:45:25;93018.34;;;2.05;77.46
40592;BME280;26301;42.832;23.918;2023-11-19T02:47:53;93001.69;;;2.10;78.80
40592;BME280;26301;42.832;23.918;2023-11-19T02:50:20;92997.06;;;1.92;76.37
40592;BME280;26301;42.832;23.918;2023-11-19T02:52:52;92996.22;;;1.78;76.40
40592;BME280;26301;42.832;23.918;2023-11-19T02:55:18;93005.13;;;1.95;76.36
40592;BME280;26301;42.832;23.918;2023-11-19T02:57:44;92982.50;;;1.79;75.95
40592;BME280;26301;42.832;23.918;2023-11-19T03:00:18;93006.84;;;1.88;75.85
40592;BME280;26301;42.832;23.918;2023-11-19T03:02:44;92988.28;;;1.66;76.06
40592;BME280;26301;42.832;23.918;2023-11-19T03:05:19;93011.88;;;1.75;76.41
40592;BME280;26301;42.832;23.918;2023-11-19T03:07:45;93011.94;;;1.88;74.78
40592;BME280;26301;42.832;23.918;2023-11-19T03:10:11;93009.91;;;1.77;75.34
40592;BME280;26301;42.832;23.918;2023-11-19T03:12:43;92996.84;;;1.58;75.83
40592;BME280;26301;42.832;23.918;2023-11-19T03:15:09;92990.88;;;1.73;76.35
40592;BME280;26301;42.832;23.918;2023-11-19T03:17:38;93022.56;;;1.92;76.55
40592;BME280;26301;42.832;23.918;2023-11-19T03:20:06;93023.53;;;1.91;75.80
40592;BME280;26301;42.832;23.918;2023-11-19T03:22:32;93000.19;;;1.87;75.00
40592;BME280;26301;42.832;23.918;2023-11-19T03:24:59;93027.31;;;2.01;75.64
40592;BME280;26301;42.832;23.918;2023-11-19T03:27:25;93016.66;;;1.91;75.75
40592;BME280;26301;42.832;23.918;2023-11-19T03:29:50;93017.03;;;1.88;76.27
40592;BME280;26301;42.832;23.918;2023-11-19T03:32:16;93036.88;;;1.93;75.21
40592;BME280;26301;42.832;23.918;2023-11-19T03:34:41;93036.22;;;1.84;75.59
40592;BME280;26301;42.832;23.918;2023-11-19T03:37:07;93024.22;;;1.78;75.04
40592;BME280;26301;42.832;23.918;2023-11-19T03:39:32;93028.09;;;1.74;75.98
40592;BME280;26301;42.832;23.918;2023-11-19T03:41:58;93042.88;;;1.85;76.07
40592;BME280;26301;42.832;23.918;2023-11-19T03:44:26;93046.16;;;1.79;76.41
40592;BME280;26301;42.832;23.918;2023-11-19T03:46:52;93042.16;;;1.70;76.18
40592;BME280;26301;42.832;23.918;2023-11-19T03:49:18;93045.38;;;1.78;76.57
40592;BME280;26301;42.832;23.918;2023-11-19T03:51:43;93030.53;;;1.60;75.70
40592;BME280;26301;42.832;23.918;2023-11-19T03:54:09;93036.00;;;1.57;74.76
40592;BME280;26301;42.832;23.918;2023-11-19T03:56:35;93048.06;;;1.70;74.96
40592;BME280;26301;42.832;23.918;2023-11-19T03:59:00;93034.59;;;1.55;75.42
40592;BME280;26301;42.832;23.918;2023-11-19T04:01:26;93059.22;;;1.69;76.43
40592;BME280;26301;42.832;23.918;2023-11-19T04:03:51;93048.63;;;1.66;76.17
40592;BME280;26301;42.832;23.918;2023-11-19T04:06:18;93056.66;;;1.69;75.75
40592;BME280;26301;42.832;23.918;2023-11-19T04:08:43;93060.53;;;1.65;76.17
40592;BME280;26301;42.832;23.918;2023-11-19T04:11:10;93060.72;;;1.64;76.43
40592;BME280;26301;42.832;23.918;2023-11-19T04:13:35;93059.38;;;1.68;76.37
40592;BME280;26301;42.832;23.918;2023-11-19T04:16:01;93058.72;;;1.59;76.10
40592;BME280;26301;42.832;23.918;2023-11-19T04:18:26;93041.69;;;1.38;76.72
40592;BME280;26301;42.832;23.918;2023-11-19T04:20:52;93037.47;;;1.45;76.67
40592;BME280;26301;42.832;23.918;2023-11-19T04:23:18;93038.19;;;1.39;76.91
40592;BME280;26301;42.832;23.918;2023-11-19T04:25:43;93045.25;;;1.44;77.24
40592;BME280;26301;42.832;23.918;2023-11-19T04:28:09;93032.31;;;1.39;76.33
40592;BME280;26301;42.832;23.918;2023-11-19T04:30:34;93045.47;;;1.42;76.04
40592;BME280;26301;42.832;23.918;2023-11-19T04:33:01;93061.03;;;1.54;76.55
40592;BME280;26301;42.832;23.918;2023-11-19T04:35:26;93069.88;;;1.58;76.36
40592;BME280;26301;42.832;23.918;2023-11-19T04:37:52;93011.69;;;1.33;76.36
40592;BME280;26301;42.832;23.918;2023-11-19T04:40:17;93080.72;;;1.67;74.65
40592;BME280;26301;42.832;23.918;2023-11-19T04:42:48;93076.63;;;1.66;75.03
40592;BME280;26301;42.832;23.918;2023-11-19T04:45:13;93049.41;;;1.45;75.14
40592;BME280;26301;42.832;23.918;2023-11-19T04:47:39;93074.28;;;1.49;75.88
40592;BME280;26301;42.832;23.918;2023-11-19T04:50:05;93068.53;;;1.62;75.51
40592;BME280;26301;42.832;23.918;2023-11-19T04:52:30;93080.69;;;1.60;74.65
40592;BME280;26301;42.832;23.918;2023-11-19T04:54:56;93055.88;;;1.47;74.53
40592;BME280;26301;42.832;23.918;2023-11-19T04:57:21;93082.78;;;1.56;75.11
40592;BME280;26301;42.832;23.918;2023-11-19T04:59:47;93050.19;;;1.45;75.50
40592;BME280;26301;42.832;23.918;2023-11-19T05:02:12;93041.94;;;1.43;74.88
40592;BME280;26301;42.832;23.918;2023-11-19T05:04:42;93078.13;;;1.60;75.15
40592;BME280;26301;42.832;23.918;2023-11-19T05:07:09;93058.53;;;1.60;75.04
40592;BME280;26301;42.832;23.918;2023-11-19T05:09:35;93046.13;;;1.51;74.24
40592;BME280;26301;42.832;23.918;2023-11-19T05:12:00;93047.09;;;1.50;74.71
40592;BME280;26301;42.832;23.918;2023-11-19T05:14:28;93049.47;;;1.51;74.72
40592;BME280;26301;42.832;23.918;2023-11-19T05:16:53;93077.41;;;1.66;75.16
40592;BME280;26301;42.832;23.918;2023-11-19T05:19:18;93088.63;;;1.72;74.88
40592;BME280;26301;42.832;23.918;2023-11-19T05:21:44;93081.47;;;1.82;75.36
40592;BME280;26301;42.832;23.918;2023-11-19T05:24:10;93079.88;;;1.81;75.07
40592;BME280;26301;42.832;23.918;2023-11-19T05:26:37;93061.44;;;1.79;73.75
40592;BME280;26301;42.832;23.918;2023-11-19T05:29:02;93086.72;;;2.02;73.45
40592;BME280;26301;42.832;23.918;2023-11-19T05:31:28;93090.63;;;2.04;73.45
40592;BME280;26301;42.832;23.918;2023-11-19T05:33:53;93085.50;;;1.98;72.07
40592;BME280;26301;42.832;23.918;2023-11-19T05:36:19;93093.91;;;1.98;73.12
40592;BME280;26301;42.832;23.918;2023-11-19T05:38:44;93086.16;;;2.06;73.29
40592;BME280;26301;42.832;23.918;2023-11-19T05:41:10;93093.09;;;1.91;73.38
40592;BME280;26301;42.832;23.918;2023-11-19T05:43:36;93109.81;;;2.00;73.29
40592;BME280;26301;42.832;23.918;2023-11-19T05:46:01;93093.56;;;2.01;73.70
40592;BME280;26301;42.832;23.918;2023-11-19T05:48:27;93096.41;;;2.13;73.55
40592;BME280;26301;42.832;23.918;2023-11-19T05:50:54;93107.88;;;2.02;71.96
40592;BME280;26301;42.832;23.918;2023-11-19T05:53:20;93094.06;;;1.90;72.04
40592;BME280;26301;42.832;23.918;2023-11-19T05:55:46;93115.47;;;1.96;71.43
40592;BME280;26301;42.832;23.918;2023-11-19T05:58:15;93118.16;;;1.88;71.79
40592;BME280;26301;42.832;23.918;2023-11-19T06:00:41;93115.75;;;1.86;72.68
40592;BME280;26301;42.832;23.918;2023-11-19T06:03:08;93102.19;;;1.79;72.24
40592;BME280;26301;42.832;23.918;2023-11-19T06:05:34;93126.94;;;1.85;72.04
40592;BME280;26301;42.832;23.918;2023-11-19T06:07:59;93111.66;;;1.85;71.87
40592;BME280;26301;42.832;23.918;2023-11-19T06:10:25;93123.34;;;1.79;72.49
40592;BME280;26301;42.832;23.918;2023-11-19T06:12:59;93136.69;;;1.81;72.52
40592;BME280;26301;42.832;23.918;2023-11-19T06:15:28;93113.94;;;1.58;72.10
40592;BME280;26301;42.832;23.918;2023-11-19T06:17:54;93110.09;;;1.63;72.46
40592;BME280;26301;42.832;23.918;2023-11-19T06:20:20;93108.91;;;1.65;72.54
40592;BME280;26301;42.832;23.918;2023-11-19T06:22:46;93122.69;;;1.71;71.49
40592;BME280;26301;42.832;23.918;2023-11-19T06:25:12;93101.00;;;1.75;71.77
40592;BME280;26301;42.832;23.918;2023-11-19T06:27:40;93100.84;;;1.83;71.96
40592;BME280;26301;42.832;23.918;2023-11-19T06:30:07;93110.38;;;1.96;71.72
40592;BME280;26301;42.832;23.918;2023-11-19T06:32:32;93121.72;;;1.93;70.61
40592;BME280;26301;42.832;23.918;2023-11-19T06:34:58;93086.44;;;1.69;69.53
40592;BME280;26301;42.832;23.918;2023-11-19T06:37:23;93120.56;;;1.96;69.62
40592;BME280;26301;42.832;23.918;2023-11-19T06:39:49;93095.03;;;1.89;71.30
40592;BME280;26301;42.832;23.918;2023-11-19T06:42:14;93108.31;;;2.06;72.21
40592;BME280;26301;42.832;23.918;2023-11-19T06:44:40;93126.69;;;2.23;73.12
40592;BME280;26301;42.832;23.918;2023-11-19T06:47:05;93129.16;;;2.38;70.97
40592;BME280;26301;42.832;23.918;2023-11-19T06:49:31;93108.56;;;2.39;71.39
40592;BME280;26301;42.832;23.918;2023-11-19T06:51:58;93105.09;;;2.25;71.58
40592;BME280;26301;42.832;23.918;2023-11-19T06:54:23;93137.75;;;2.37;72.56
40592;BME280;26301;42.832;23.918;2023-11-19T06:56:49;93142.47;;;2.40;69.96
40592;BME280;26301;42.832;23.918;2023-11-19T06:59:14;93117.72;;;2.34;69.97
40592;BME280;26301;42.832;23.918;2023-11-19T07:01:40;93126.84;;;2.49;70.64
40592;BME280;26301;42.832;23.918;2023-11-19T07:04:11;93152.44;;;2.63;70.46
40592;BME280;26301;42.832;23.918;2023-11-19T07:06:38;93132.75;;;2.50;72.01
40592;BME280;26301;42.832;23.918;2023-11-19T07:09:04;93151.88;;;2.67;73.05
40592;BME280;26301;42.832;23.918;2023-11-19T07:11:41;93134.59;;;2.63;72.78
40592;BME280;26301;42.832;23.918;2023-11-19T07:14:08;93159.66;;;2.87;71.54
40592;BME280;26301;42.832;23.918;2023-11-19T07:16:34;93171.91;;;2.98;70.67
40592;BME280;26301;42.832;23.918;2023-11-19T07:19:03;93148.72;;;2.93;70.17
40592;BME280;26301;42.832;23.918;2023-11-19T07:21:29;93165.59;;;2.94;71.10
40592;BME280;26301;42.832;23.918;2023-11-19T07:23:55;93138.47;;;2.87;69.48
40592;BME280;26301;42.832;23.918;2023-11-19T07:26:20;93173.06;;;2.96;67.84
40592;BME280;26301;42.832;23.918;2023-11-19T07:28:47;93153.44;;;2.96;69.50
40592;BME280;26301;42.832;23.918;2023-11-19T07:31:12;93182.81;;;3.20;67.71
40592;BME280;26301;42.832;23.918;2023-11-19T07:33:39;93156.22;;;3.02;69.79
40592;BME280;26301;42.832;23.918;2023-11-19T07:36:05;93146.78;;;2.95;69.72
40592;BME280;26301;42.832;23.918;2023-11-19T07:38:31;93175.31;;;3.12;68.55
40592;BME280;26301;42.832;23.918;2023-11-19T07:40:56;93185.38;;;3.20;68.41
40592;BME280;26301;42.832;23.918;2023-11-19T07:43:22;93183.06;;;3.32;68.18
40592;BME280;26301;42.832;23.918;2023-11-19T07:45:48;93168.50;;;3.26;68.71
40592;BME280;26301;42.832;23.918;2023-11-19T07:48:13;93154.88;;;3.12;68.47
40592;BME280;26301;42.832;23.918;2023-11-19T07:50:39;93162.97;;;3.16;68.62
40592;BME280;26301;42.832;23.918;2023-11-19T07:53:07;93183.25;;;3.31;68.01
40592;BME280;26301;42.832;23.918;2023-11-19T07:55:34;93178.56;;;3.34;67.58
40592;BME280;26301;42.832;23.918;2023-11-19T07:57:59;93172.09;;;3.38;68.66
40592;BME280;26301;42.832;23.918;2023-11-19T08:00:25;93165.09;;;3.54;67.26
40592;BME280;26301;42.832;23.918;2023-11-19T08:02:51;93155.22;;;3.37;66.46
40592;BME280;26301;42.832;23.918;2023-11-19T08:05:16;93170.19;;;3.47;67.95
40592;BME280;26301;42.832;23.918;2023-11-19T08:07:42;93156.16;;;3.36;68.72
40592;BME280;26301;42.832;23.918;2023-11-19T08:10:07;93168.22;;;3.49;69.25
40592;BME280;26301;42.832;23.918;2023-11-19T08:12:36;93175.53;;;3.65;68.84
40592;BME280;26301;42.832;23.918;2023-11-19T08:15:03;93183.63;;;3.76;67.97
40592;BME280;26301;42.832;23.918;2023-11-19T08:17:30;93143.72;;;3.61;68.28
40592;BME280;26301;42.832;23.918;2023-11-19T08:19:55;93187.41;;;3.93;65.15
40592;BME280;26301;42.832;23.918;2023-11-19T08:22:21;93184.25;;;3.91;64.52
40592;BME280;26301;42.832;23.918;2023-11-19T08:24:48;93180.09;;;3.77;64.97
40592;BME280;26301;42.832;23.918;2023-11-19T08:27:13;93195.06;;;3.93;64.89
40592;BME280;26301;42.832;23.918;2023-11-19T08:29:39;93197.63;;;3.93;64.64
40592;BME280;26301;42.832;23.918;2023-11-19T08:32:05;93186.25;;;3.96;64.92
40592;BME280;26301;42.832;23.918;2023-11-19T08:34:32;93179.75;;;4.00;64.66
40592;BME280;26301;42.832;23.918;2023-11-19T08:36:57;93155.78;;;3.94;65.03
40592;BME280;26301;42.832;23.918;2023-11-19T08:39:23;93137.84;;;3.87;64.33
40592;BME280;26301;42.832;23.918;2023-11-19T08:41:49;93177.63;;;4.17;65.61
40592;BME280;26301;42.832;23.918;2023-11-19T08:44:15;93182.75;;;4.23;65.36
40592;BME280;26301;42.832;23.918;2023-11-19T08:46:50;93170.53;;;4.05;64.95
40592;BME280;26301;42.832;23.918;2023-11-19T08:49:17;93187.66;;;4.18;64.63
40592;BME280;26301;42.832;23.918;2023-11-19T08:51:43;93185.91;;;4.25;65.06
40592;BME280;26301;42.832;23.918;2023-11-19T08:54:09;93177.25;;;4.26;65.83
40592;BME280;26301;42.832;23.918;2023-11-19T08:56:35;93178.44;;;4.30;65.47
40592;BME280;26301;42.832;23.918;2023-11-19T08:59:01;93180.41;;;4.42;63.09
40592;BME280;26301;42.832;23.918;2023-11-19T09:01:26;93184.94;;;4.40;64.30
40592;BME280;26301;42.832;23.918;2023-11-19T09:03:52;93183.75;;;4.49;64.25
40592;BME280;26301;42.832;23.918;2023-11-19T09:06:18;93156.59;;;4.48;63.43
40592;BME280;26301;42.832;23.918;2023-11-19T09:08:43;93168.41;;;4.62;63.46
40592;BME280;26301;42.832;23.918;2023-11-19T09:11:09;93180.22;;;4.70;63.57
40592;BME280;26301;42.832;23.918;2023-11-19T09:13:35;93174.28;;;4.69;65.04
40592;BME280;26301;42.832;23.918;2023-11-19T09:16:00;93141.81;;;4.63;64.03
40592;BME280;26301;42.832;23.918;2023-11-19T09:18:29;93151.47;;;4.88;63.37
40592;BME280;26301;42.832;23.918;2023-11-19T09:20:55;93150.06;;;4.92;62.26
40592;BME280;26301;42.832;23.918;2023-11-19T09:23:21;93139.63;;;4.87;61.82
40592;BME280;26301;42.832;23.918;2023-11-19T09:25:46;93147.69;;;5.03;62.64
40592;BME280;26301;42.832;23.918;2023-11-19T09:28:12;93153.38;;;5.12;63.09
40592;BME280;26301;42.832;23.918;2023-11-19T09:30:39;93162.19;;;5.30;61.30
40592;BME280;26301;42.832;23.918;2023-11-19T09:33:05;93162.16;;;5.36;61.09
40592;BME280;26301;42.832;23.918;2023-11-19T09:35:30;93151.53;;;5.33;60.95
40592;BME280;26301;42.832;23.918;2023-11-19T09:37:56;93138.94;;;5.31;60.48
40592;BME280;26301;42.832;23.918;2023-11-19T09:40:22;93130.03;;;5.40;62.86
40592;BME280;26301;42.832;23.918;2023-11-19T09:42:48;93139.06;;;5.49;60.93
40592;BME280;26301;42.832;23.918;2023-11-19T09:45:16;93123.38;;;5.33;57.72
40592;BME280;26301;42.832;23.918;2023-11-19T09:47:45;93116.69;;;5.25;57.12
40592;BME280;26301;42.832;23.918;2023-11-19T09:50:18;93133.25;;;5.16;58.51
40592;BME280;26301;42.832;23.918;2023-11-19T09:52:45;93143.31;;;5.11;59.32
40592;BME280;26301;42.832;23.918;2023-11-19T09:55:11;93117.75;;;5.04;58.76
40592;BME280;26301;42.832;23.918;2023-11-19T09:57:38;93133.44;;;5.14;59.07
40592;BME280;26301;42.832;23.918;2023-11-19T10:00:05;93115.41;;;5.02;58.09
40592;BME280;26301;42.832;23.918;2023-11-19T10:02:36;93115.81;;;4.99;58.47
40592;BME280;26301;42.832;23.918;2023-11-19T10:05:04;93115.38;;;5.09;59.76
40592;BME280;26301;42.832;23.918;2023-11-19T10:07:31;93131.72;;;5.01;60.63
40592;BME280;26301;42.832;23.918;2023-11-19T10:10:02;93126.03;;;4.99;58.94
40592;BME280;26301;42.832;23.918;2023-11-19T10:12:29;93114.66;;;4.82;60.00
40592;BME280;26301;42.832;23.918;2023-11-19T10:14:58;93123.69;;;4.91;62.65
40592;BME280;26301;42.832;23.918;2023-11-19T10:17:33;93106.16;;;4.95;61.11
40592;BME280;26301;42.832;23.918;2023-11-19T10:19:59;93115.91;;;5.24;60.65
40592;BME280;26301;42.832;23.918;2023-11-19T10:22:25;93116.31;;;5.21;60.77
40592;BME280;26301;42.832;23.918;2023-11-19T10:24:52;93106.09;;;5.08;59.67
40592;BME280;26301;42.832;23.918;2023-11-19T10:27:19;93120.63;;;5.27;59.70
40592;BME280;26301;42.832;23.918;2023-11-19T10:29:45;93115.09;;;5.31;60.99
40592;BME280;26301;42.832;23.918;2023-11-19T10:32:12;93118.78;;;5.41;59.30
40592;BME280;26301;42.832;23.918;2023-11-19T10:34:39;93104.84;;;5.31;59.59
40592;BME280;26301;42.832;23.918;2023-11-19T10:37:05;93099.34;;;5.27;58.21
40592;BME280;26301;42.832;23.918;2023-11-19T10:39:53;93105.16;;;5.47;57.40
40592;BME280;26301;42.832;23.918;2023-11-19T10:42:22;93107.09;;;5.59;58.71
40592;BME280;26301;42.832;23.918;2023-11-19T10:44:47;93065.81;;;5.35;59.37
40592;BME280;26301;42.832;23.918;2023-11-19T10:47:19;93084.84;;;5.53;58.12
40592;BME280;26301;42.832;23.918;2023-11-19T10:49:45;93104.25;;;5.73;59.11
40592;BME280;26301;42.832;23.918;2023-11-19T10:52:17;93088.16;;;5.60;56.92
40592;BME280;26301;42.832;23.918;2023-11-19T10:54:50;93096.38;;;5.75;58.07
40592;BME280;26301;42.832;23.918;2023-11-19T10:57:22;93090.72;;;5.60;56.91
40592;BME280;26301;42.832;23.918;2023-11-19T10:59:52;93115.53;;;5.59;57.90
40592;BME280;26301;42.832;23.918;2023-11-19T11:02:23;93097.09;;;5.44;58.50
40592;BME280;26301;42.832;23.918;2023-11-19T11:04:49;93081.94;;;5.42;59.30
40592;BME280;26301;42.832;23.918;2023-11-19T11:07:16;93093.41;;;5.33;58.59
40592;BME280;26301;42.832;23.918;2023-11-19T11:09:47;93081.63;;;5.25;59.65
40592;BME280;26301;42.832;23.918;2023-11-19T11:12:15;93084.53;;;5.36;58.54
40592;BME280;26301;42.832;23.918;2023-11-19T11:14:44;93078.59;;;5.42;58.78
40592;BME280;26301;42.832;23.918;2023-11-19T11:17:11;93083.47;;;5.50;58.43
40592;BME280;26301;42.832;23.918;2023-11-19T11:19:38;93065.09;;;5.21;58.33
40592;BME280;26301;42.832;23.918;2023-11-19T11:22:04;93092.97;;;5.43;59.94
40592;BME280;26301;42.832;23.918;2023-11-19T11:24:41;93090.94;;;5.58;60.55
40592;BME280;26301;42.832;23.918;2023-11-19T11:27:34;93088.38;;;5.58;59.38
40592;BME280;26301;42.832;23.918;2023-11-19T11:36:20;93090.28;;;5.69;59.20
40592;BME280;26301;42.832;23.918;2023-11-19T11:38:50;93090.31;;;5.63;60.23
40592;BME280;26301;42.832;23.918;2023-11-19T11:41:21;93089.78;;;5.54;59.44
40592;BME280;26301;42.832;23.918;2023-11-19T11:43:52;93076.75;;;5.56;59.77
40592;BME280;26301;42.832;23.918;2023-11-19T11:49:00;93074.53;;;5.66;59.25
40592;BME280;26301;42.832;23.918;2023-11-19T11:54:11;93069.72;;;5.76;61.32
40592;BME280;26301;42.832;23.918;2023-11-19T11:56:37;93065.81;;;5.73;59.60
40592;BME280;26301;42.832;23.918;2023-11-19T11:59:07;93086.06;;;5.82;58.77
40592;BME280;26301;42.832;23.918;2023-11-19T12:01:33;93072.75;;;5.66;58.50
40592;BME280;26301;42.832;23.918;2023-11-19T12:03:58;93086.53;;;5.65;59.09
40592;BME280;26301;42.832;23.918;2023-11-19T12:06:24;93054.06;;;5.59;59.41
40592;BME280;26301;42.832;23.918;2023-11-19T12:08:52;93072.13;;;5.71;60.13
40592;BME280;26301;42.832;23.918;2023-11-19T12:11:17;93069.22;;;5.61;59.67
40592;BME280;26301;42.832;23.918;2023-11-19T12:13:56;93059.41;;;5.58;60.01
40592;BME280;26301;42.832;23.918;2023-11-19T12:16:24;93041.53;;;5.44;59.14
40592;BME280;26301;42.832;23.918;2023-11-19T12:18:50;93068.66;;;5.59;58.48
40592;BME280;26301;42.832;23.918;2023-11-19T12:21:31;93042.78;;;5.28;59.17
40592;BME280;26301;42.832;23.918;2023-11-19T12:23:58;93058.53;;;5.32;58.94
40592;BME280;26301;42.832;23.918;2023-11-19T12:26:37;93043.75;;;5.34;58.79
40592;BME280;26301;42.832;23.918;2023-11-19T12:29:02;93030.00;;;5.28;58.88
40592;BME280;26301;42.832;23.918;2023-11-19T12:31:29;93042.34;;;5.45;60.19
40592;BME280;26301;42.832;23.918;2023-11-19T12:33:56;93027.97;;;5.37;58.30
40592;BME280;26301;42.832;23.918;2023-11-19T12:36:21;93024.63;;;5.37;58.55
40592;BME280;26301;42.832;23.918;2023-11-19T12:38:47;93031.53;;;5.36;59.61
40592;BME280;26301;42.832;23.918;2023-11-19T12:41:12;93041.50;;;5.51;59.21
40592;BME280;26301;42.832;23.918;2023-11-19T12:43:42;93036.81;;;5.48;60.06
40592;BME280;26301;42.832;23.918;2023-11-19T12:46:21;93029.53;;;5.45;61.19
40592;BME280;26301;42.832;23.918;2023-11-19T12:48:51;93020.66;;;5.41;60.21
40592;BME280;26301;42.832;23.918;2023-11-19T12:51:17;93006.50;;;5.38;59.18
40592;BME280;26301;42.832;23.918;2023-11-19T12:53:49;93027.28;;;5.55;57.97
40592;BME280;26301;42.832;23.918;2023-11-19T12:56:24;93025.34;;;5.50;58.58
40592;BME280;26301;42.832;23.918;2023-11-19T12:58:50;93021.75;;;5.58;59.25
40592;BME280;26301;42.832;23.918;2023-11-19T13:01:20;92998.16;;;5.49;58.38
40592;BME280;26301;42.832;23.918;2023-11-19T13:03:46;93025.25;;;5.64;59.17
40592;BME280;26301;42.832;23.918;2023-11-19T13:06:14;93021.50;;;5.66;57.89
40592;BME280;26301;42.832;23.918;2023-11-19T13:08:48;93008.56;;;5.55;59.55
40592;BME280;26301;42.832;23.918;2023-11-19T13:11:30;93024.69;;;5.62;59.72
40592;BME280;26301;42.832;23.918;2023-11-19T13:14:03;92985.44;;;5.36;60.44
40592;BME280;26301;42.832;23.918;2023-11-19T13:16:37;93000.34;;;5.46;58.67
40592;BME280;26301;42.832;23.918;2023-11-19T13:19:03;93005.06;;;5.49;60.00
40592;BME280;26301;42.832;23.918;2023-11-19T13:21:30;93017.25;;;5.54;58.83
40592;BME280;26301;42.832;23.918;2023-11-19T13:23:56;93011.06;;;5.36;59.86
40592;BME280;26301;42.832;23.918;2023-11-19T13:26:21;93017.31;;;5.40;60.93